Time;durP1;ratioP1;P1;durP2;ratioP2;P2;SDS_P1;SDS_P2;PMS_P1;PMS_P2;Temp;Humidity;BMP_temperature;BMP_pressure;BME280_temperature;BME280_humidity;BME280_pressure;Samples;Min_cycle;Max_cycle;Signal;HPM_P1;HPM_P2
2021/03/08 00:01:55;;;;;;;28.42;18.02;;;;;;;1.77;41.38;101543.66;4908448;28;100899;-75
2021/03/08 00:04:23;;;;;;;27.23;16.35;;;;;;;1.73;41.76;101537.28;4906815;28;97721;-75
2021/03/08 00:06:50;;;;;;;25.60;15.80;;;;;;;1.69;42.06;101535.25;4918075;28;97148;-75
2021/03/08 00:09:16;;;;;;;25.65;14.90;;;;;;;1.71;42.53;101538.91;4929889;28;98796;-74
2021/03/08 00:11:44;;;;;;;24.33;15.23;;;;;;;1.74;41.67;101541.75;4933000;28;98697;-74
2021/03/08 00:14:11;;;;;;;25.02;15.25;;;;;;;1.75;42.25;101548.81;4933479;28;96759;-75
2021/03/08 00:16:38;;;;;;;26.25;15.00;;;;;;;1.74;42.41;101544.38;4915274;28;97301;-75
2021/03/08 00:19:05;;;;;;;28.15;16.42;;;;;;;1.76;41.90;101542.75;4935906;28;98837;-74
2021/03/08 00:21:31;;;;;;;29.27;16.60;;;;;;;1.79;42.27;101548.22;4934451;28;97381;-74
2021/03/08 00:23:59;;;;;;;27.67;16.90;;;;;;;1.80;42.18;101549.09;4922169;28;97892;-74
2021/03/08 00:26:25;;;;;;;27.38;16.45;;;;;;;1.78;41.72;101549.00;4910149;28;97213;-73
2021/03/08 00:29:13;;;;;;;32.55;17.33;;;;;;;1.77;42.00;101534.06;4924208;28;98069;-74
2021/03/08 00:31:40;;;;;;;26.20;16.80;;;;;;;1.75;42.52;101532.16;4904656;28;99559;-75
2021/03/08 00:34:07;;;;;;;25.85;16.13;;;;;;;1.74;42.55;101538.22;4931600;28;97494;-74
2021/03/08 00:36:34;;;;;;;26.42;16.88;;;;;;;1.74;42.60;101540.84;4935557;28;96895;-73
2021/03/08 00:39:02;;;;;;;25.70;16.27;;;;;;;1.75;41.97;101546.19;4911277;28;98513;-73
2021/03/08 00:41:29;;;;;;;26.20;16.30;;;;;;;1.75;42.02;101543.56;4927240;28;97183;-74
2021/03/08 00:43:56;;;;;;;27.42;16.75;;;;;;;1.75;42.26;101538.31;4908901;28;96859;-73
2021/03/08 00:46:24;;;;;;;26.17;16.02;;;;;;;1.73;42.23;101539.91;4905695;28;97212;-73
2021/03/08 00:48:51;;;;;;;28.23;16.50;;;;;;;1.72;42.57;101540.72;4913327;28;98678;-74
2021/03/08 00:51:19;;;;;;;24.35;15.13;;;;;;;1.72;41.88;101540.72;4920146;28;99757;-74
2021/03/08 00:53:46;;;;;;;24.33;14.82;;;;;;;1.73;42.33;101536.38;4909852;28;97024;-75
2021/03/08 00:56:13;;;;;;;26.27;15.40;;;;;;;1.74;42.62;101544.38;4916354;28;96845;-75
2021/03/08 00:58:40;;;;;;;25.23;15.52;;;;;;;1.72;42.42;101538.13;4920208;28;98973;-75
2021/03/08 01:01:07;;;;;;;26.90;15.98;;;;;;;1.72;42.40;101538.13;4931387;28;98825;-75
2021/03/08 01:03:35;;;;;;;28.48;15.77;;;;;;;1.73;43.01;101545.16;4928215;28;96895;-74
2021/03/08 01:06:05;;;;;;;24.92;15.40;;;;;;;1.74;42.64;101539.13;4928569;28;97347;-75
2021/03/08 01:08:37;;;;;;;30.38;16.63;;;;;;;1.73;42.56;101539.91;4908678;28;100645;-75
2021/03/08 01:11:06;;;;;;;28.55;16.15;;;;;;;1.73;42.18;101541.63;4918561;28;99554;-75
2021/03/08 01:13:44;;;;;;;26.75;15.27;;;;;;;1.71;42.30;101543.22;4908346;28;99040;-74
2021/03/08 01:16:10;;;;;;;27.38;17.40;;;;;;;1.73;42.55;101536.38;4906608;28;96962;-74
2021/03/08 01:18:38;;;;;;;27.50;16.20;;;;;;;1.71;42.74;101541.53;4925140;28;97308;-75
2021/03/08 01:21:06;;;;;;;27.48;16.10;;;;;;;1.73;42.38;101545.16;4932036;28;98052;-75
2021/03/08 01:23:32;;;;;;;31.25;16.30;;;;;;;1.75;42.39;101542.63;4922490;28;97365;-74
2021/03/08 01:25:59;;;;;;;25.95;15.60;;;;;;;1.78;42.18;101530.63;4926154;28;97623;-74
2021/03/08 01:28:27;;;;;;;30.55;16.70;;;;;;;1.80;42.42;101543.84;4927686;28;97722;-74
2021/03/08 01:30:55;;;;;;;28.10;15.80;;;;;;;1.80;42.66;101535.97;4919044;28;100444;-74
2021/03/08 01:33:23;;;;;;;28.35;15.90;;;;;;;1.83;42.31;101534.50;4919370;28;97244;-74
2021/03/08 01:35:51;;;;;;;29.58;16.83;;;;;;;1.82;42.28;101535.28;4930247;28;98233;-74
2021/03/08 01:38:17;;;;;;;26.23;15.25;;;;;;;1.83;42.26;101524.00;4915406;28;98173;-74
2021/03/08 01:40:44;;;;;;;24.08;15.80;;;;;;;1.86;42.30;101528.53;4921261;28;100787;-75
2021/03/08 01:43:12;;;;;;;28.48;16.42;;;;;;;1.81;42.60;101525.63;4921579;28;98861;-74
2021/03/08 01:45:40;;;;;;;29.63;16.60;;;;;;;1.85;42.62;101522.38;4932465;28;96942;-74
2021/03/08 01:48:08;;;;;;;26.45;16.33;;;;;;;1.82;42.93;101524.81;4919491;28;100397;-74
2021/03/08 01:50:36;;;;;;;26.17;16.63;;;;;;;1.83;42.54;101531.88;4910398;28;101033;-74
2021/03/08 01:53:05;;;;;;;26.67;16.00;;;;;;;1.85;42.38;101521.47;4924308;28;97223;-74
2021/03/08 01:55:32;;;;;;;25.23;14.80;;;;;;;1.84;42.90;101524.91;4931793;28;98376;-74
2021/03/08 01:58:00;;;;;;;28.42;14.75;;;;;;;1.83;42.58;101524.00;4933088;28;99009;-74
2021/03/08 02:00:28;;;;;;;27.38;16.05;;;;;;;1.86;42.89;101523.28;4912613;28;100514;-74
2021/03/08 02:02:56;;;;;;;26.38;15.85;;;;;;;1.89;43.07;101524.41;4928516;28;97192;-74
2021/03/08 02:05:25;;;;;;;22.75;15.05;;;;;;;1.91;42.75;101517.53;4936762;28;96739;-75
2021/03/08 02:07:53;;;;;;;25.13;15.13;;;;;;;1.95;42.32;101521.28;4930673;28;100316;-75
2021/03/08 02:10:22;;;;;;;28.33;15.80;;;;;;;1.95;42.64;101519.56;4935835;28;98992;-75
2021/03/08 02:13:03;;;;;;;28.67;16.17;;;;;;;1.98;43.05;101526.75;4924676;28;97047;-75
2021/03/08 02:15:37;;;;;;;22.38;14.13;;;;;;;1.99;43.34;101525.94;4933641;28;97152;-75
2021/03/08 02:18:08;;;;;;;24.52;15.45;;;;;;;2.05;42.85;101522.00;4926445;28;97653;-75
2021/03/08 02:20:48;;;;;;;26.63;16.48;;;;;;;2.10;43.78;101522.34;4935292;28;98647;-75
2021/03/08 02:24:01;;;;;;;26.65;15.63;;;;;;;2.13;43.43;101518.22;4913983;28;96864;-75
2021/03/08 02:26:38;;;;;;;26.55;15.10;;;;;;;2.16;42.35;101526.28;4854253;28;97239;-74
2021/03/08 02:29:28;;;;;;;26.23;14.77;;;;;;;2.22;43.00;101514.38;4937640;28;97066;-75
2021/03/08 02:31:57;;;;;;;26.85;14.57;;;;;;;2.19;42.07;101518.63;4926167;28;99273;-74
2021/03/08 02:34:28;;;;;;;25.80;16.08;;;;;;;2.22;42.30;101527.53;4924138;28;97065;-74
2021/03/08 02:37:01;;;;;;;29.35;15.18;;;;;;;2.20;42.03;101516.88;4928021;28;97805;-74
2021/03/08 02:39:30;;;;;;;22.35;14.15;;;;;;;2.16;42.81;101526.28;4923101;28;101372;-75
2021/03/08 02:41:58;;;;;;;25.05;15.82;;;;;;;2.18;42.28;101522.03;4911087;28;99879;-74
2021/03/08 02:44:29;;;;;;;26.20;15.55;;;;;;;2.16;42.18;101523.66;4934167;28;97557;-75
2021/03/08 02:46:57;;;;;;;25.55;14.80;;;;;;;2.18;42.06;101524.66;4916805;28;98008;-74
2021/03/08 02:49:27;;;;;;;27.15;15.00;;;;;;;2.20;42.90;101520.44;4941737;28;98945;-74
2021/03/08 02:51:58;;;;;;;25.27;13.98;;;;;;;2.25;42.48;101526.00;4935132;28;99625;-75
2021/03/08 02:54:26;;;;;;;22.95;14.43;;;;;;;2.30;42.49;101527.22;4916722;28;98221;-75
2021/03/08 02:56:56;;;;;;;30.50;15.63;;;;;;;2.33;42.46;101532.66;4928545;28;97354;-75
2021/03/08 02:59:24;;;;;;;24.02;13.70;;;;;;;2.29;42.71;101528.03;4922405;28;97775;-75
2021/03/08 03:01:51;;;;;;;19.55;13.27;;;;;;;2.27;42.42;101533.97;4922111;28;99237;-75
2021/03/08 03:04:20;;;;;;;22.50;13.95;;;;;;;2.30;42.21;101532.47;4909433;28;97303;-76
2021/03/08 03:06:49;;;;;;;18.80;12.45;;;;;;;2.27;42.64;101537.53;4907812;28;97437;-76
2021/03/08 03:09:18;;;;;;;20.13;11.95;;;;;;;2.19;42.84;101534.38;4913239;28;99009;-75
2021/03/08 03:11:49;;;;;;;22.20;13.63;;;;;;;2.11;42.45;101538.19;4916287;28;99320;-75
2021/03/08 03:14:16;;;;;;;19.95;11.75;;;;;;;2.12;42.30;101541.75;4914613;28;97342;-75
2021/03/08 03:16:46;;;;;;;19.63;12.23;;;;;;;2.17;42.66;101543.88;4932947;28;96888;-75
2021/03/08 03:19:14;;;;;;;17.35;11.88;;;;;;;2.18;42.39;101542.16;4915841;28;99111;-75
2021/03/08 03:21:43;;;;;;;19.85;12.30;;;;;;;2.18;42.08;101537.78;4922195;28;99027;-75
2021/03/08 03:24:10;;;;;;;16.63;11.23;;;;;;;2.22;42.68;101551.16;4929040;28;97134;-75
2021/03/08 03:26:38;;;;;;;18.75;11.50;;;;;;;2.27;42.44;101549.72;4895114;28;97253;-75
2021/03/08 03:29:05;;;;;;;20.23;11.75;;;;;;;2.28;42.32;101562.03;4931377;28;98092;-74
2021/03/08 03:31:33;;;;;;;17.40;10.93;;;;;;;2.28;42.09;101567.28;4917072;28;98831;-75
2021/03/08 03:34:01;;;;;;;18.85;10.93;;;;;;;2.28;42.25;101569.91;4922914;28;97237;-75
2021/03/08 03:36:29;;;;;;;19.92;12.63;;;;;;;2.27;42.09;101574.28;4916764;28;97219;-75
2021/03/08 03:38:57;;;;;;;19.30;11.45;;;;;;;2.33;42.60;101576.41;4913378;28;98775;-75
2021/03/08 03:41:25;;;;;;;18.90;10.90;;;;;;;2.33;41.76;101576.41;4910193;28;99590;-74
2021/03/08 03:43:52;;;;;;;17.90;11.07;;;;;;;2.36;41.32;101579.22;4916696;28;96712;-73
2021/03/08 03:46:19;;;;;;;19.10;11.05;;;;;;;2.37;41.96;101584.56;4912140;28;97497;-74
2021/03/08 03:48:46;;;;;;;18.88;11.07;;;;;;;2.39;42.01;101582.03;4931979;28;97153;-74
2021/03/08 03:51:13;;;;;;;48.20;21.45;;;;;;;2.33;42.12;101579.03;4932624;28;97007;-74
2021/03/08 03:53:40;;;;;;;20.58;11.73;;;;;;;2.30;41.62;101582.34;4913926;28;97319;-74
2021/03/08 03:56:08;;;;;;;17.63;10.38;;;;;;;2.29;42.46;101591.06;4928236;28;97275;-74
2021/03/08 03:58:38;;;;;;;16.35;10.88;;;;;;;2.30;42.08;101597.19;4934779;28;97685;-74
2021/03/08 04:01:07;;;;;;;17.63;10.60;;;;;;;2.31;41.87;101601.66;4917240;28;97810;-74
2021/03/08 04:03:39;;;;;;;14.20;9.93;;;;;;;2.30;42.22;101606.00;4929843;28;96843;-74
2021/03/08 04:06:07;;;;;;;15.40;10.45;;;;;;;2.30;41.66;101602.44;4933852;28;96698;-73
2021/03/08 04:08:34;;;;;;;50.80;21.95;;;;;;;2.30;42.01;101605.06;4915395;28;100957;-74
2021/03/08 04:11:05;;;;;;;29.75;14.98;;;;;;;2.29;41.57;101613.78;4922871;28;99960;-73
2021/03/08 04:13:33;;;;;;;18.42;9.90;;;;;;;2.26;41.31;101624.97;4934690;28;99238;-73
2021/03/08 04:16:01;;;;;;;14.98;10.43;;;;;;;2.28;41.30;101622.44;4910879;28;97086;-73
2021/03/08 04:18:29;;;;;;;14.43;9.82;;;;;;;2.29;41.33;101626.91;4927817;28;99530;-73
2021/03/08 04:20:58;;;;;;;14.13;9.43;;;;;;;2.27;41.93;101636.38;4934500;28;99272;-73
2021/03/08 04:23:26;;;;;;;27.90;16.27;;;;;;;2.29;41.31;101638.31;4933086;28;97166;-73
2021/03/08 04:25:53;;;;;;;25.33;14.95;;;;;;;2.30;41.68;101644.44;4912289;28;97120;-73
2021/03/08 04:28:21;;;;;;;12.65;9.40;;;;;;;2.27;41.62;101649.50;4930086;28;97961;-73
2021/03/08 04:30:48;;;;;;;13.02;8.90;;;;;;;2.27;41.46;101644.25;4921347;28;99778;-75
2021/03/08 04:33:17;;;;;;;45.13;19.02;;;;;;;2.23;41.97;101647.47;4940247;28;97304;-74
2021/03/08 04:35:46;;;;;;;29.92;15.57;;;;;;;2.18;41.55;101649.81;4915988;28;97377;-75
2021/03/08 04:38:14;;;;;;;12.80;8.48;;;;;;;2.16;41.73;101649.69;4913625;28;100520;-74
2021/03/08 04:40:41;;;;;;;11.52;8.20;;;;;;;2.15;42.11;101658.38;4905405;28;101312;-73
2021/03/08 04:43:08;;;;;;;12.40;8.73;;;;;;;2.07;41.48;101650.75;4928316;28;96855;-74
2021/03/08 04:45:35;;;;;;;12.30;8.55;;;;;;;2.03;41.67;101665.38;4921172;28;97317;-75
2021/03/08 04:48:04;;;;;;;12.68;8.07;;;;;;;2.00;42.25;101664.22;4919190;28;97318;-74
2021/03/08 04:50:32;;;;;;;11.43;8.00;;;;;;;1.95;41.98;101655.13;4899215;28;101058;-74
2021/03/08 04:52:59;;;;;;;12.15;7.57;;;;;;;1.92;41.92;101660.19;4928891;28;97092;-74
2021/03/08 04:55:28;;;;;;;11.10;7.97;;;;;;;1.90;41.60;101660.09;4918716;28;96758;-73
2021/03/08 04:58:14;;;;;;;10.70;7.72;;;;;;;1.86;41.73;101660.66;4925813;28;96859;-73
2021/03/08 05:00:41;;;;;;;10.32;7.35;;;;;;;1.85;42.57;101663.19;4919658;28;100974;-74
2021/03/08 05:03:11;;;;;;;8.60;6.80;;;;;;;1.84;41.51;101671.84;4918652;28;97312;-74
2021/03/08 05:05:38;;;;;;;13.18;8.60;;;;;;;1.84;41.91;101667.50;4925537;28;97361;-74
2021/03/08 05:08:07;;;;;;;21.85;13.75;;;;;;;1.93;42.61;101675.09;4913703;28;98875;-74
2021/03/08 05:10:34;;;;;;;16.50;9.23;;;;;;;1.88;41.55;101672.19;4908281;28;100135;-74
2021/03/08 05:13:02;;;;;;;14.68;8.65;;;;;;;1.88;42.30;101680.06;4914345;28;96815;-74
2021/03/08 05:15:29;;;;;;;11.77;7.90;;;;;;;1.87;41.81;101680.84;4918984;28;97620;-74
2021/03/08 05:17:58;;;;;;;9.57;7.30;;;;;;;1.82;41.76;101690.09;4933891;28;97833;-73
2021/03/08 05:20:27;;;;;;;13.05;8.48;;;;;;;1.73;41.92;101697.34;4898366;28;100499;-74
2021/03/08 05:22:58;;;;;;;12.60;8.35;;;;;;;1.67;42.04;101694.25;4933235;28;96701;-74
2021/03/08 05:25:26;;;;;;;11.77;8.68;;;;;;;1.65;41.88;101698.50;4908282;28;96925;-74
2021/03/08 05:27:53;;;;;;;11.13;8.10;;;;;;;1.64;41.62;101695.75;4907016;28;98560;-74
2021/03/08 05:30:22;;;;;;;10.30;8.43;;;;;;;1.62;42.03;101700.91;4909313;28;99481;-74
2021/03/08 05:33:07;;;;;;;12.85;9.07;;;;;;;1.63;42.06;101704.44;4912059;28;96724;-74
2021/03/08 05:35:35;;;;;;;22.25;12.70;;;;;;;1.59;42.14;101713.81;4913056;28;98745;-74
2021/03/08 05:38:04;;;;;;;14.82;9.02;;;;;;;1.54;42.52;101712.59;4910439;28;99788;-74
2021/03/08 05:40:39;;;;;;;10.35;7.43;;;;;;;1.52;42.03;101706.31;4907114;28;97662;-74
2021/03/08 05:43:07;;;;;;;8.25;7.20;;;;;;;1.49;42.06;101711.31;4907715;28;97720;-74
2021/03/08 05:45:36;;;;;;;10.70;7.05;;;;;;;1.49;41.66;101711.31;4928018;28;97933;-74
2021/03/08 05:48:21;;;;;;;12.38;6.68;;;;;;;1.45;42.30;101706.63;4907162;28;99227;-74
2021/03/08 05:51:02;;;;;;;11.00;6.80;;;;;;;1.43;42.34;101704.72;4912883;28;98050;-74
2021/03/08 05:53:50;;;;;;;11.40;8.53;;;;;;;1.57;42.17;101704.91;4907567;28;98085;-73
2021/03/08 05:56:23;;;;;;;11.98;8.13;;;;;;;1.62;41.82;101711.41;4932017;28;97521;-73
2021/03/08 05:59:14;;;;;;;11.30;7.22;;;;;;;1.54;41.86;101712.59;4926507;28;99676;-73
2021/03/08 06:02:02;;;;;;;8.88;6.32;;;;;;;1.49;42.27;101720.91;4908264;28;100009;-73
2021/03/08 06:04:48;;;;;;;11.90;8.27;;;;;;;1.61;42.05;101733.19;4923902;28;99165;-73
2021/03/08 06:07:38;;;;;;;6.88;6.15;;;;;;;1.53;41.49;101734.34;4898949;28;98828;-73
2021/03/08 06:10:06;;;;;;;5.88;5.25;;;;;;;1.51;42.00;101737.66;4925661;28;97670;-73
2021/03/08 06:12:35;;;;;;;9.15;5.88;;;;;;;1.47;41.53;101738.25;4912809;28;97730;-74
2021/03/08 06:15:04;;;;;;;9.88;6.53;;;;;;;1.38;41.88;101743.72;4927794;28;97141;-73
2021/03/08 06:17:32;;;;;;;8.40;5.70;;;;;;;1.32;42.09;101745.91;4935762;28;97190;-73
2021/03/08 06:20:00;;;;;;;6.95;5.63;;;;;;;1.26;41.47;101757.63;4911039;28;99338;-73
2021/03/08 06:22:27;;;;;;;8.80;6.38;;;;;;;1.20;42.13;101748.53;4936138;28;97398;-73
2021/03/08 06:24:54;;;;;;;7.00;5.72;;;;;;;1.16;42.18;101753.41;4924228;28;96984;-73
2021/03/08 06:27:21;;;;;;;7.07;6.32;;;;;;;1.14;41.84;101749.81;4927798;28;97151;-73
2021/03/08 06:29:48;;;;;;;6.80;5.28;;;;;;;1.18;41.69;101762.31;4917312;28;97531;-73
2021/03/08 06:32:15;;;;;;;8.32;6.20;;;;;;;1.18;41.61;101767.56;4932710;28;97867;-73
2021/03/08 06:34:42;;;;;;;7.70;5.75;;;;;;;1.15;41.57;101777.81;4936677;28;98097;-73
2021/03/08 06:37:10;;;;;;;6.68;5.78;;;;;;;1.14;41.96;101776.00;4893630;28;97278;-72
2021/03/08 06:39:38;;;;;;;5.13;4.55;;;;;;;1.16;41.43;101779.63;4927142;28;96912;-74
2021/03/08 06:42:07;;;;;;;7.70;5.47;;;;;;;1.14;41.92;101784.75;4926091;28;98846;-73
2021/03/08 06:44:35;;;;;;;6.95;5.18;;;;;;;1.15;42.02;101790.94;4911948;28;97925;-73
2021/03/08 06:47:04;;;;;;;5.95;4.97;;;;;;;1.16;41.38;101795.34;4913501;28;97886;-73
2021/03/08 06:49:31;;;;;;;8.85;5.60;;;;;;;1.16;41.71;101800.59;4924086;28;99169;-73
2021/03/08 06:52:05;;;;;;;5.75;5.25;;;;;;;1.11;41.46;101802.91;4930218;28;97608;-73
2021/03/08 06:54:33;;;;;;;6.70;5.13;;;;;;;1.14;41.68;101807.47;4919421;28;97318;-73
2021/03/08 06:57:00;;;;;;;6.82;5.32;;;;;;;1.11;41.57;101812.47;4893456;28;98676;-73
2021/03/08 06:59:28;;;;;;;7.32;4.78;;;;;;;1.12;41.78;101812.56;4932741;28;98384;-73
2021/03/08 07:01:55;;;;;;;8.07;5.32;;;;;;;1.14;41.72;101810.09;4912146;28;99687;-73
2021/03/08 07:04:25;;;;;;;6.65;4.70;;;;;;;1.16;41.53;101814.63;4926948;28;96857;-73
2021/03/08 07:07:03;;;;;;;6.00;4.70;;;;;;;1.18;41.25;101822.59;4912249;28;97243;-73
2021/03/08 07:09:31;;;;;;;9.10;5.03;;;;;;;1.20;41.42;101818.38;4914937;28;98987;-74
2021/03/08 07:12:09;;;;;;;5.53;5.07;;;;;;;1.25;40.84;101827.53;4931750;28;100113;-73
2021/03/08 07:14:37;;;;;;;6.60;4.90;;;;;;;1.27;41.13;101825.91;4913652;28;97400;-74
2021/03/08 07:17:29;;;;;;;4.38;4.18;;;;;;;1.31;40.97;101833.22;4929683;28;98968;-73
2021/03/08 07:19:57;;;;;;;4.97;4.50;;;;;;;1.35;41.08;101840.50;4911589;28;98604;-72
2021/03/08 07:22:45;;;;;;;5.45;4.80;;;;;;;1.37;40.96;101841.56;4913730;28;101456;-72
2021/03/08 07:25:18;;;;;;;5.00;4.38;;;;;;;1.42;40.70;101849.75;4921299;28;97589;-72
2021/03/08 07:27:46;;;;;;;6.35;4.60;;;;;;;1.42;41.06;101842.78;4919653;28;97266;-72
2021/03/08 07:30:16;;;;;;;4.78;4.30;;;;;;;1.40;40.99;101849.63;4892210;28;99187;-72
2021/03/08 07:32:51;;;;;;;7.22;4.30;;;;;;;1.41;40.89;101856.72;4904092;28;99367;-72
2021/03/08 07:35:32;;;;;;;4.18;3.92;;;;;;;1.40;41.05;101854.00;4892192;28;97074;-72
2021/03/08 07:38:00;;;;;;;5.70;4.63;;;;;;;1.44;41.13;101845.53;4904466;28;97313;-72
2021/03/08 07:40:27;;;;;;;4.47;4.15;;;;;;;1.45;41.01;101856.13;4929105;28;99457;-73
2021/03/08 07:42:55;;;;;;;5.07;4.60;;;;;;;1.43;40.52;101860.38;4935491;28;97517;-73
2021/03/08 07:45:38;;;;;;;6.03;4.55;;;;;;;1.46;40.66;101865.84;4929224;28;97094;-72
2021/03/08 07:48:10;;;;;;;4.60;4.22;;;;;;;1.50;40.95;101864.34;4919368;28;97562;-73
2021/03/08 07:50:37;;;;;;;7.85;4.68;;;;;;;1.51;40.44;101856.59;4915033;28;99296;-73
2021/03/08 07:53:22;;;;;;;6.32;4.85;;;;;;;1.56;40.21;101863.09;4931412;28;100793;-72
2021/03/08 07:55:50;;;;;;;5.32;4.35;;;;;;;1.57;40.51;101878.03;4912036;28;97824;-73
2021/03/08 07:58:17;;;;;;;9.02;4.43;;;;;;;1.59;40.49;101876.44;4914258;28;97174;-73
2021/03/08 08:00:46;;;;;;;5.68;5.20;;;;;;;1.64;40.34;101875.06;4931418;28;99801;-73
2021/03/08 08:03:15;;;;;;;7.80;4.85;;;;;;;1.65;40.32;101882.13;4905474;28;98857;-73
2021/03/08 08:05:43;;;;;;;5.68;5.18;;;;;;;1.71;40.39;101881.66;4897203;28;97107;-72
2021/03/08 08:08:10;;;;;;;4.88;4.55;;;;;;;1.72;40.50;101883.50;4912243;28;98101;-72
2021/03/08 08:10:37;;;;;;;5.32;4.90;;;;;;;1.73;40.63;101891.50;4931950;28;96919;-72
2021/03/08 08:13:05;;;;;;;7.10;4.95;;;;;;;1.76;40.41;101889.06;4904247;28;99660;-72
2021/03/08 08:15:32;;;;;;;5.68;4.55;;;;;;;1.79;40.58;101883.16;4896817;28;97331;-73
2021/03/08 08:18:00;;;;;;;6.13;4.75;;;;;;;1.83;40.36;101880.88;4928453;28;97246;-74
2021/03/08 08:20:29;;;;;;;5.07;4.78;;;;;;;1.86;39.92;101886.34;4925297;28;97920;-73
2021/03/08 08:23:00;;;;;;;6.78;5.00;;;;;;;1.90;40.29;101882.22;4930197;28;98851;-74
2021/03/08 08:25:31;;;;;;;9.27;5.50;;;;;;;1.98;39.50;101879.34;4928984;28;97586;-74
2021/03/08 08:27:59;;;;;;;8.13;4.85;;;;;;;2.02;39.72;101876.16;4927023;28;96955;-73
2021/03/08 08:30:28;;;;;;;5.07;4.60;;;;;;;2.04;40.29;101881.50;4926980;28;98376;-74
2021/03/08 08:32:56;;;;;;;5.50;5.10;;;;;;;2.07;39.77;101877.41;4910364;28;97430;-73
2021/03/08 08:35:30;;;;;;;7.40;4.90;;;;;;;2.10;39.89;101882.00;4929472;28;96982;-73
2021/03/08 08:38:17;;;;;;;5.60;5.18;;;;;;;2.17;39.64;101879.03;4911381;28;96832;-74
2021/03/08 08:41:18;;;;;;;5.10;4.70;;;;;;;2.22;39.60;101879.38;4925623;28;100822;-73
2021/03/08 08:43:46;;;;;;;5.63;5.13;;;;;;;2.25;39.50;101882.19;4905843;28;100446;-75
2021/03/08 08:46:24;;;;;;;6.95;4.85;;;;;;;2.23;39.90;101878.56;4927777;28;96723;-74
2021/03/08 08:49:06;;;;;;;7.82;5.40;;;;;;;2.26;39.21;101878.75;4917060;28;97279;-74
2021/03/08 08:51:46;;;;;;;5.40;5.00;;;;;;;2.29;39.32;101879.00;4929249;28;97973;-76
2021/03/08 08:54:46;;;;;;;6.13;5.00;;;;;;;2.36;39.46;101876.00;4920814;28;97933;-74
2021/03/08 08:57:13;;;;;;;5.88;5.30;;;;;;;2.37;40.04;101881.34;4908279;28;97474;-74
2021/03/08 08:59:48;;;;;;;8.48;5.93;;;;;;;2.43;39.16;101879.19;4904572;28;98039;-73
2021/03/08 09:02:31;;;;;;;6.30;5.50;;;;;;;2.51;39.01;101885.88;4906014;28;100222;-74
2021/03/08 09:04:59;;;;;;;6.25;5.65;;;;;;;2.53;39.41;101881.63;4907553;28;99012;-74
2021/03/08 09:07:27;;;;;;;6.95;5.50;;;;;;;2.57;39.92;101888.94;4905747;28;97106;-74
2021/03/08 09:09:56;;;;;;;7.25;5.45;;;;;;;2.62;39.49;101890.16;4887443;28;97076;-74
2021/03/08 09:12:40;;;;;;;5.50;5.10;;;;;;;2.67;39.38;101886.16;4924872;28;99086;-73
2021/03/08 09:15:09;;;;;;;5.45;4.95;;;;;;;2.69;39.62;101886.28;4926434;28;97908;-73
2021/03/08 09:17:42;;;;;;;5.43;4.32;;;;;;;2.71;39.01;101893.44;4903114;28;96981;-74
2021/03/08 09:20:28;;;;;;;5.63;5.13;;;;;;;2.78;39.03;101889.53;4919118;28;97198;-74
2021/03/08 09:22:58;;;;;;;5.18;4.50;;;;;;;2.84;39.12;101889.94;4910164;28;99839;-74
2021/03/08 09:25:27;;;;;;;5.20;4.65;;;;;;;2.88;38.85;101892.00;4901348;28;99974;-73
2021/03/08 09:28:02;;;;;;;6.47;4.82;;;;;;;2.94;38.35;101892.44;4923997;28;97466;-73
2021/03/08 09:30:30;;;;;;;7.80;4.25;;;;;;;2.95;39.21;101896.88;4905906;28;96800;-74
2021/03/08 09:33:05;;;;;;;4.15;3.85;;;;;;;2.95;38.94;101900.41;4905216;28;99598;-74
2021/03/08 09:35:34;;;;;;;4.28;3.97;;;;;;;3.03;39.10;101898.31;4904902;28;99079;-74
2021/03/08 09:38:05;;;;;;;5.25;4.18;;;;;;;3.07;38.36;101896.03;4903935;28;97201;-73
2021/03/08 09:40:34;;;;;;;5.28;4.88;;;;;;;3.12;38.92;101896.31;4905130;28;97280;-74
2021/03/08 09:43:02;;;;;;;4.18;3.88;;;;;;;3.17;38.37;101894.91;4919640;28;97265;-73
2021/03/08 09:45:33;;;;;;;3.88;3.58;;;;;;;3.19;38.30;101902.09;4889961;28;101106;-74
2021/03/08 09:48:02;;;;;;;4.50;4.18;;;;;;;3.24;38.38;101894.50;4920049;28;96708;-74
2021/03/08 09:50:36;;;;;;;4.20;3.90;;;;;;;3.30;38.45;101892.31;4921090;28;98652;-74
2021/03/08 09:53:05;;;;;;;3.88;3.58;;;;;;;3.36;38.52;101895.38;4915765;28;99486;-74
2021/03/08 09:55:34;;;;;;;4.63;4.20;;;;;;;3.47;37.49;101896.09;4906364;28;98718;-74
2021/03/08 09:58:09;;;;;;;6.22;4.03;;;;;;;3.41;36.76;101893.94;4911219;28;96835;-73
2021/03/08 10:00:54;;;;;;;3.90;3.50;;;;;;;3.41;38.08;101895.66;4912783;28;97666;-72
2021/03/08 10:03:20;;;;;;;4.53;4.20;;;;;;;3.53;37.35;101894.75;4921450;28;98791;-73
2021/03/08 10:05:49;;;;;;;4.20;3.10;;;;;;;3.52;37.61;101887.69;4916720;28;99296;-73
2021/03/08 10:08:19;;;;;;;4.35;3.70;;;;;;;3.65;36.48;101893.00;4930719;28;96971;-74
2021/03/08 10:10:47;;;;;;;3.85;3.33;;;;;;;3.68;37.10;101889.63;4917879;28;96735;-73
2021/03/08 10:13:14;;;;;;;3.83;3.50;;;;;;;3.71;37.20;101890.78;4919951;28;97936;-74
2021/03/08 10:15:51;;;;;;;3.60;3.30;;;;;;;3.74;37.32;101890.06;4927489;28;99835;-73
2021/03/08 10:18:36;;;;;;;3.58;3.38;;;;;;;3.72;36.98;101892.59;4914874;28;98364;-73
2021/03/08 10:21:05;;;;;;;3.50;3.30;;;;;;;3.77;36.94;101899.06;4902347;28;98285;-73
2021/03/08 10:23:34;;;;;;;3.67;3.30;;;;;;;3.80;36.84;101896.66;4907629;28;98819;-73
2021/03/08 10:26:04;;;;;;;4.60;3.42;;;;;;;3.83;36.92;101894.22;4930974;28;100379;-73
2021/03/08 10:28:36;;;;;;;3.22;3.13;;;;;;;3.82;36.74;101897.66;4937312;28;98663;-74
2021/03/08 10:31:03;;;;;;;3.20;3.10;;;;;;;3.85;37.00;101896.94;4934236;28;98100;-73
2021/03/08 10:33:30;;;;;;;4.05;3.85;;;;;;;3.89;36.95;101897.25;4931202;28;97713;-74
2021/03/08 10:35:57;;;;;;;4.85;3.20;;;;;;;3.87;36.93;101893.59;4925573;28;98768;-73
2021/03/08 10:38:45;;;;;;;3.00;2.80;;;;;;;3.95;37.15;101896.75;4927158;28;97059;-73
2021/03/08 10:41:12;;;;;;;3.53;3.22;;;;;;;3.96;36.99;101894.22;4906648;28;99044;-73
2021/03/08 10:43:42;;;;;;;3.47;3.22;;;;;;;4.00;36.66;101896.25;4921975;28;97847;-73
2021/03/08 10:46:08;;;;;;;3.58;3.38;;;;;;;4.02;36.65;101899.84;4931675;28;99369;-73
2021/03/08 10:48:36;;;;;;;3.25;3.13;;;;;;;4.05;36.77;101892.16;4913133;28;97127;-74
2021/03/08 10:51:03;;;;;;;4.97;3.17;;;;;;;4.10;36.52;101892.44;4905499;28;98194;-73
2021/03/08 10:53:56;;;;;;;3.17;2.97;;;;;;;4.09;35.39;101891.56;4910961;28;99828;-74
2021/03/08 10:56:23;;;;;;;3.10;3.00;;;;;;;4.08;36.29;101892.34;4909211;28;97687;-75
2021/03/08 10:58:51;;;;;;;2.97;2.88;;;;;;;4.11;36.40;101895.22;4892944;28;98519;-73
2021/03/08 11:01:36;;;;;;;3.00;2.90;;;;;;;4.17;35.94;101897.34;4908551;28;97152;-74
2021/03/08 11:04:03;;;;;;;3.97;2.75;;;;;;;4.21;35.82;101901.97;4907783;28;99333;-73
2021/03/08 11:06:30;;;;;;;2.88;2.80;;;;;;;4.26;35.77;101897.00;4924976;28;97461;-74
2021/03/08 11:09:00;;;;;;;2.80;2.78;;;;;;;4.34;35.43;101895.75;4910199;28;98176;-73
2021/03/08 11:11:29;;;;;;;3.00;2.83;;;;;;;4.41;35.37;101903.25;4908718;28;96901;-74
2021/03/08 11:14:01;;;;;;;39.05;17.27;;;;;;;4.40;34.97;101899.69;4920917;28;98661;-73
2021/03/08 11:16:29;;;;;;;6.82;5.35;;;;;;;4.41;34.75;101913.81;4923730;28;99626;-72
2021/03/08 11:19:15;;;;;;;4.78;3.25;;;;;;;4.47;33.72;101906.25;4924130;28;96956;-73
2021/03/08 11:21:42;;;;;;;2.67;2.45;;;;;;;4.48;34.06;101908.09;4925737;28;98057;-73
2021/03/08 11:24:18;;;;;;;2.53;2.53;;;;;;;4.46;31.23;101899.19;4902431;28;97564;-74
2021/03/08 11:27:11;;;;;;;2.63;2.53;;;;;;;4.50;32.27;101894.19;4911654;28;101280;-74
2021/03/08 11:29:39;;;;;;;3.50;3.20;;;;;;;4.45;34.73;101893.00;4925979;28;98010;-74
2021/03/08 11:32:07;;;;;;;2.63;2.53;;;;;;;4.41;34.77;101900.63;4924057;28;96917;-73
2021/03/08 11:34:41;;;;;;;2.85;2.70;;;;;;;4.43;34.30;101897.25;4908386;28;100278;-74
2021/03/08 11:37:10;;;;;;;2.63;2.53;;;;;;;4.54;34.49;101898.84;4922890;28;97988;-74
2021/03/08 11:39:41;;;;;;;2.50;2.40;;;;;;;4.52;34.55;101899.59;4894275;28;97331;-74
2021/03/08 11:42:09;;;;;;;2.80;2.80;;;;;;;4.62;34.22;101887.06;4910900;28;96735;-73